• Join FlightAware (Why Join?)
  • Login
  • US Flag 
07:06AM EDT


 

Airport Tracker/Info


-or-


 

Live Flight TrackerFlight Track Log ✈ FSP564 ✈ 04-May-2012 ✈ KIFP - KRHV

Flight Track Log - Related Links

Times and Time Zones

All times are in EDT time to prevent confusion due to time zone crossing. See the FSP564 flight status page for this flight to view local times or setup timezone preferences in your user account.

Time Position Orientation Groundspeed Altitude Reporting Facility
EDT Latitude Longitude Course Direction KTS MPH feet Rate Location/Type
03:30PM 35.1561 -114.5694 239° Southwest  Level FlightAware Approximate
03:31PM 35.1565 -114.6091 236° Southwest  Level FlightAware Approximate
03:32PM 35.1568 -114.6488 231° Southwest  Level FlightAware Approximate
03:33PM 35.1572 -114.6886 227° Southwest  Level FlightAware Approximate
03:34PM 35.1576 -114.7283 221° Southwest  Level FlightAware Approximate
03:35PM 35.1583 -114.7680 213° Southwest  Level FlightAware Approximate
03:36PM 35.1590 -114.8077 205° Southwest  Level FlightAware Approximate
03:37PM 35.1622 -114.8473 195° South  Level FlightAware Approximate
03:38PM 35.1655 -114.8868 184° South  Level FlightAware Approximate
03:39PM 35.1708 -114.9260 174° South  Level FlightAware Approximate
03:40PM 35.1762 -114.9652 164° South  Level FlightAware Approximate
03:41PM 35.1815 -115.0044 156° South  Level FlightAware Approximate
03:42PM 35.1869 -115.0436 149° Southeast  Level FlightAware Approximate
03:43PM 35.1962 -115.0817 144° Southeast  Level FlightAware Approximate
03:44PM 35.2056 -115.1198 140° Southeast  Level FlightAware Approximate
03:45PM 35.2150 -115.1578 137° Southeast  Level FlightAware Approximate
03:46PM 35.2243 -115.1959 134° Southeast  Level FlightAware Approximate
03:47PM 35.2336 -115.2340 132° Southeast  Level FlightAware Approximate
03:48PM 34.9917 -114.9017 240° Southwest 129 148 8,500  Level Los Angeles Center
03:49PM 34.9772 -114.9322 235° Southwest 119 137 8,600  Climbing Los Angeles Center
03:50PM 34.9567 -114.9681 242° Southwest 124 143 8,600  Level Los Angeles Center
03:51PM 34.9403 -115.0064 241° Southwest 124 143 8,600  Level Los Angeles Center
03:52PM 34.9239 -115.0419 235° Southwest 124 143 8,600  Level Los Angeles Center
03:53PM 34.9033 -115.0778 242° Southwest 124 143 8,600 -60 Level Los Angeles Center
03:54PM 34.8869 -115.1158 238° Southwest 124 143 8,500  Descending Los Angeles Center
03:55PM 34.8686 -115.1517 242° Southwest 124 143 8,600  Climbing Los Angeles Center
03:56PM 34.8522 -115.1897 241° Southwest 124 143 8,600  Level Los Angeles Center
03:57PM 34.8358 -115.2253 230° Southwest 124 143 8,600  Level Los Angeles Center
03:58PM 34.8108 -115.2611 249° West 124 143 8,600 -60 Level Los Angeles Center
03:59PM 34.7986 -115.2992 246° West 135 155 8,500 -60 Descending Los Angeles Center
04:00PM 34.7844 -115.3372 263° West 135 155 8,500  Level Los Angeles Center
04:01PM 34.7806 -115.3778 260° West 130 150 8,500  Level Los Angeles Center
04:02PM 34.7744 -115.4183 260° West 125 144 8,500  Level Los Angeles Center
04:03PM 34.7683 -115.4611 261° West 125 144 8,500  Level Los Angeles Center
04:04PM 34.7625 -115.5069 263° West 125 144 8,500  Level Los Angeles Center
04:05PM 34.7583 -115.5497 258° West 130 150 8,500  Level Los Angeles Center
04:06PM 34.7503 -115.5978 262° West 130 150 8,500  Level Los Angeles Center
04:07PM 34.7461 -115.6358 260° West 130 150 8,500 -60 Level Los Angeles Center
04:08PM 34.7381 -115.6889 281° West 137 158 8,400 -60 Descending Los Angeles Center
04:10PM 34.7508 -115.7725 280° West 142 163 8,400  Level Los Angeles Center
04:11PM 34.7572 -115.8178 280° West 142 163 8,400  Level Los Angeles Center
04:12PM 34.7636 -115.8608 284° West 142 163 8,400  Level Los Angeles Center
04:13PM 34.7719 -115.9011 280° West 136 157 8,400  Level Los Angeles Center
04:14PM 34.7783 -115.9442 270° West 136 157 8,400  Level Los Angeles Center
04:15PM 34.7783 -115.9822 270° West 124 143 8,500  Climbing Los Angeles Center
04:16PM 34.7783 -116.0225 271° West 124 143 8,500  Level Los Angeles Center
04:17PM 34.7786 -116.0606 266° West 124 143 8,500  Level Los Angeles Center
04:18PM 34.7764 -116.1011 270° West 124 143 8,500  Level Los Angeles Center
04:19PM 34.7764 -116.1389 277° West 124 143 8,500  Level Los Angeles Center
04:20PM 34.7806 -116.1794 259° West 124 143 8,500  Level Los Angeles Center
04:21PM 34.7742 -116.2200 274° West 124 143 8,500  Level Los Angeles Center
04:22PM 34.7764 -116.2628 270° West 124 143 8,500  Level Los Angeles Center
04:23PM 34.7764 -116.3033 266° West 124 143 8,500  Level Los Angeles Center
04:24PM 34.7742 -116.3464 270° West 124 143 8,500  Level Los Angeles Center
04:25PM 34.7742 -116.3842 270° West 124 143 8,500  Level Los Angeles Center
04:26PM 34.7739 -116.4272 270° West 124 143 8,500  Level Los Angeles Center
04:27PM 34.7739 -116.4653 270° West 119 137 8,500  Level Los Angeles Center
04:28PM 34.7736 -116.5031 266° West 119 137 8,500  Level Los Angeles Center
04:29PM 34.7714 -116.5411 270° West 119 137 8,500  Level Los Angeles Center
04:30PM 34.7714 -116.5789 270° West 119 137 8,500  Level Los Angeles Center
04:31PM 34.7711 -116.6219 266° West 125 144 8,500  Level Los Angeles Center
04:32PM 34.7689 -116.6597 273° West 125 144 8,500  Level Los Angeles Center
04:33PM 34.7708 -116.7053 270° West 125 144 8,500  Level Los Angeles Center
04:34PM 34.7706 -116.7483 266° West 125 144 8,500  Level Los Angeles Center
04:35PM 34.7683 -116.7914 270° West 125 144 8,500  Level Los Angeles Center
04:36PM 34.7681 -116.8369 270° West 125 144 8,500  Level Los Angeles Center
04:37PM 34.7678 -116.8797 270° West 125 144 8,500  Level Los Angeles Center
04:38PM 34.7675 -116.9228 270° West 125 144 8,500  Level Los Angeles Center
04:39PM 34.7672 -116.9658 270° West 125 144 8,500  Level Los Angeles Center
04:40PM 34.7669 -117.0064 267° West 125 144 8,500 -60 Level Los Angeles Center
04:41PM 34.7644 -117.0619 270° West 130 150 8,400 -60 Descending Los Angeles Center
04:42PM 34.7642 -117.1047 268° West 130 150 8,400  Level Los Angeles Center
04:44PM 34.7614 -117.1908 269° West 130 150 8,500  Climbing Los Angeles Center
04:45PM 34.7608 -117.2311 270° West 130 150 8,500  Level Los Angeles Center
04:46PM 34.7606 -117.2767 269° West 130 150 8,500  Level Los Angeles Center
04:47PM 34.7600 -117.3197 270° West 130 150 8,500  Level Los Angeles Center
04:48PM 34.7597 -117.3603 269° West 130 150 8,500  Level Los Angeles Center
04:49PM 34.7592 -117.4006 266° West 130 150 8,500  Level Los Angeles Center
04:50PM 34.7567 -117.4461 269° West 130 150 8,500  Level Los Angeles Center
04:51PM 34.7561 -117.4892 270° West 125 144 8,500  Level Los Angeles Center
04:52PM 34.7558 -117.5319 269° West 125 144 8,500  Level Los Angeles Center
04:53PM 34.7553 -117.5750 269° West 125 144 8,500  Level Los Angeles Center
04:54PM 34.7547 -117.6156 266° West 125 144 8,500  Level Los Angeles Center
04:55PM 34.7522 -117.6583 269° West 125 144 8,500  Level Los Angeles Center
04:56PM 34.7514 -117.7039 269° West 125 144 8,500  Level Los Angeles Center
04:57PM 34.7508 -117.7469 269° West 125 144 8,500  Level Los Angeles Center
04:58PM 34.7503 -117.7922 308° West 125 144 8,500  Level Los Angeles Center
05:06PM 34.9250 -118.0535 308° West  Level FlightAware Approximate
05:07PM 34.9472 -118.0867 308° West  Level FlightAware Approximate
05:08PM 34.9693 -118.1200 308° West  Level FlightAware Approximate
05:09PM 34.9914 -118.1532 308° West  Level FlightAware Approximate
05:10PM 35.0135 -118.1865 308° West  Level FlightAware Approximate
05:11PM 35.0356 -118.2198 308° West  Level FlightAware Approximate
05:12PM 35.0577 -118.2531 308° West  Level FlightAware Approximate
05:13PM 35.0798 -118.2865 308° West  Level FlightAware Approximate
05:14PM 35.1018 -118.3198 308° West  Level FlightAware Approximate
05:15PM 35.1239 -118.3532 308° West  Level FlightAware Approximate
05:16PM 35.1459 -118.3866 308° West  Level FlightAware Approximate
05:17PM 35.1680 -118.4200 308° West  Level FlightAware Approximate
05:18PM 35.1900 -118.4534 308° West  Level FlightAware Approximate
05:19PM 35.2120 -118.4868 308° West  Level FlightAware Approximate
05:20PM 35.2342 -118.5201 307° West  Level FlightAware Approximate
05:21PM 35.2564 -118.5533 307° West  Level FlightAware Approximate
05:22PM 35.2786 -118.5866 307° West  Level FlightAware Approximate
05:23PM 35.3008 -118.6199 307° West  Level FlightAware Approximate
05:24PM 35.3230 -118.6532 307° West  Level FlightAware Approximate
05:25PM 35.3452 -118.6866 307° West  Level FlightAware Approximate
05:26PM 35.3674 -118.7199 307° West  Level FlightAware Approximate
05:27PM 35.3895 -118.7533 307° West  Level FlightAware Approximate
05:28PM 35.4117 -118.7867 307° West  Level FlightAware Approximate
05:29PM 35.4338 -118.8201 307° West  Level FlightAware Approximate
05:30PM 35.4560 -118.8535 307° West  Level FlightAware Approximate
05:31PM 35.4781 -118.8870 307° West  Level FlightAware Approximate
05:32PM 35.5002 -118.9205 307° West  Level FlightAware Approximate
05:33PM 35.5223 -118.9539 307° West  Level FlightAware Approximate
05:34PM 35.5444 -118.9874 307° West  Level FlightAware Approximate
05:35PM 35.5665 -119.0210 307° West  Level FlightAware Approximate
05:36PM 35.5885 -119.0545 306° West  Level FlightAware Approximate
05:37PM 35.6106 -119.0881 306° West  Level FlightAware Approximate
05:38PM 35.6327 -119.1217 306° West  Level FlightAware Approximate
05:39PM 35.6547 -119.1553 306° West  Level FlightAware Approximate
05:40PM 35.6768 -119.1889 306° West  Level FlightAware Approximate
05:41PM 35.6988 -119.2225 306° West  Level FlightAware Approximate
05:42PM 35.7208 -119.2562 306° West  Level FlightAware Approximate
05:43PM 35.7428 -119.2898 306° West  Level FlightAware Approximate
05:44PM 35.7648 -119.3235 306° West  Level FlightAware Approximate
05:45PM 35.7868 -119.3572 306° West  Level FlightAware Approximate
05:46PM 35.8088 -119.3910 306° West  Level FlightAware Approximate
05:47PM 35.8308 -119.4247 305° West  Level FlightAware Approximate
05:48PM 35.8527 -119.4585 305° West  Level FlightAware Approximate
05:49PM 35.8747 -119.4923 305° West  Level FlightAware Approximate
05:50PM 35.8966 -119.5261 305° West  Level FlightAware Approximate
05:51PM 35.9185 -119.5599 305° West  Level FlightAware Approximate
05:52PM 35.9405 -119.5937 305° West  Level FlightAware Approximate
05:53PM 35.9624 -119.6276 304° West  Level FlightAware Approximate
05:54PM 35.9843 -119.6615 304° West  Level FlightAware Approximate
05:55PM 36.0062 -119.6954 304° West  Level FlightAware Approximate
05:56PM 36.0281 -119.7293 304° West  Level FlightAware Approximate
05:57PM 36.0500 -119.7632 304° West  Level FlightAware Approximate
05:58PM 36.0718 -119.7971 303° West  Level FlightAware Approximate
05:59PM 36.0937 -119.8311 303° West  Level FlightAware Approximate
06:00PM 36.1156 -119.8651 303° West  Level FlightAware Approximate
06:01PM 36.1374 -119.8991 302° West  Level FlightAware Approximate
06:02PM 36.1592 -119.9331 302° West  Level FlightAware Approximate
06:03PM 36.1810 -119.9672 301° West  Level FlightAware Approximate
06:04PM 36.2029 -120.0013 301° West  Level FlightAware Approximate
06:05PM 36.2247 -120.0353 300° West  Level FlightAware Approximate
06:06PM 36.2464 -120.0694 300° West  Level FlightAware Approximate
06:07PM 36.2682 -120.1036 299° West  Level FlightAware Approximate
06:08PM 36.2900 -120.1377 298° West  Level FlightAware Approximate
06:09PM 36.3117 -120.1719 297° West  Level FlightAware Approximate
06:10PM 36.3335 -120.2060 295° West  Level FlightAware Approximate
06:11PM 36.3552 -120.2402 293° West  Level FlightAware Approximate
06:12PM 36.3770 -120.2745 291° West  Level FlightAware Approximate
06:13PM 36.3987 -120.3087 287° West  Level FlightAware Approximate
06:14PM 36.4204 -120.3430 282° West  Level FlightAware Approximate
06:15PM 36.4421 -120.3772 274° West  Level FlightAware Approximate
06:16PM 36.4638 -120.4115 261° West  Level FlightAware Approximate
06:17PM 36.4855 -120.4458 238° Southwest  Level FlightAware Approximate
06:18PM 36.5071 -120.4802 207° Southwest  Level FlightAware Approximate
06:19PM 36.5288 -120.5145 181° South  Level FlightAware Approximate
06:20PM 36.5505 -120.5489 166° South  Level FlightAware Approximate
06:21PM 36.5721 -120.5833 156° South  Level FlightAware Approximate
06:22PM 36.5937 -120.6177 151° Southeast  Level FlightAware Approximate
06:23PM 36.6154 -120.6521 147° Southeast  Level FlightAware Approximate
06:24PM 36.6370 -120.6866 144° Southeast  Level FlightAware Approximate
06:25PM 36.4500 -120.5167 321° Northwest 132 152 8,500  Level Northern Cal TRACON
06:26PM 36.4833 -120.5500 302° West 134 154 8,500  Level Northern Cal TRACON
06:27PM 36.5000 -120.5833 321° Northwest 130 150 8,500  Level Northern Cal TRACON
06:28PM 36.5333 -120.6167 302° West 128 147 8,500  Level Northern Cal TRACON
06:29PM 36.5500 -120.6500 302° West 130 150 8,500  Level Northern Cal TRACON
06:30PM 36.5667 -120.6833 321° Northwest 134 154 8,500  Level Northern Cal TRACON
06:31PM 36.6000 -120.7167 302° West 131 151 8,500  Level Northern Cal TRACON
06:32PM 36.6167 -120.7500 302° West 127 146 8,500  Level Northern Cal TRACON
06:33PM 36.6333 -120.7833 321° Northwest 120 138 8,500  Level Northern Cal TRACON
06:34PM 36.6667 -120.8167 302° West 131 151 8,500  Level Northern Cal TRACON
06:35PM 36.6833 -120.8500 321° Northwest 133 153 8,500  Level Northern Cal TRACON
06:36PM 36.7167 -120.8833 302° West 129 148 8,500  Level Northern Cal TRACON
06:37PM 36.7333 -120.9167 310° West 136 157 8,500 -60 Level Northern Cal TRACON
06:38PM 36.7667 -120.9667 302° West 136 157 8,400  Descending Northern Cal TRACON
06:39PM 36.7833 -121.0000 302° West 133 153 8,500  Climbing Northern Cal TRACON
06:40PM 36.8000 -121.0333 321° Northwest 133 153 8,500  Level Northern Cal TRACON
06:41PM 36.8333 -121.0667 302° West 134 154 8,500  Level Northern Cal TRACON
06:42PM 36.8500 -121.1000 321° Northwest 135 155 8,500  Level Northern Cal TRACON
06:43PM 36.8833 -121.1333 302° West 132 152 8,500  Level Northern Cal TRACON
06:44PM 36.9000 -121.1667 321° Northwest 134 154 8,500 -120 Level Northern Cal TRACON
06:45PM 36.9333 -121.2000 293° West 138 159 8,300 -300 Descending Northern Cal TRACON
06:46PM 36.9500 -121.2500 321° Northwest 142 163 8,000 -300 Descending Northern Cal TRACON
06:47PM 36.9833 -121.2833 302° West 143 165 7,700 -300 Descending Northern Cal TRACON
06:48PM 37.0000 -121.3167 293° West 141 162 7,400 -300 Descending Northern Cal TRACON
06:49PM 37.0167 -121.3667 293° West 147 169 7,100 -360 Descending Northern Cal TRACON
06:50PM 37.0333 -121.4167 270° West 143 165 6,700 -480 Descending Northern Cal TRACON
06:51PM 37.0333 -121.4667 321° Northwest 145 167 6,200 -480 Descending Northern Cal TRACON
06:52PM 37.0667 -121.5000 293° West 143 165 5,800 -480 Descending Northern Cal TRACON
06:53PM 37.0833 -121.5500 338° Northwest 146 168 5,300 -420 Descending Northern Cal TRACON
06:54PM 37.1167 -121.5667 321° Northwest 138 159 5,100 -300 Descending Northern Cal TRACON
06:55PM 37.1500 -121.6000 302° West 137 158 4,700 -480 Descending Northern Cal TRACON
06:56PM 37.1667 -121.6333 321° Northwest 141 162 4,200 -480 Descending Northern Cal TRACON
06:57PM 37.2000 -121.6667 310° West 141 162 3,800 -600 Descending Northern Cal TRACON
06:58PM 37.2333 -121.7167 321° Northwest 136 157 3,100 -780 Descending Northern Cal TRACON
06:59PM 37.2500 -121.7333 321° Northwest 124 143 2,300 -720 Descending Northern Cal TRACON
07:00PM 37.2833 -121.7667 322° Northwest 116 133 1,700 -600 Descending Northern Cal TRACON
07:01PM 37.3000 -121.7833 322° Northwest 95 109 1,100 -540 Descending Northern Cal TRACON
07:02PM 37.3167 -121.8000 322° Northwest 78 90 700 -420 Descending Northern Cal TRACON